Time;durP1;ratioP1;P1;durP2;ratioP2;P2;SDS_P1;SDS_P2;PMS_P1;PMS_P2;Temp;Humidity;BMP_temperature;BMP_pressure;BME280_temperature;BME280_humidity;BME280_pressure;Samples;Min_cycle;Max_cycle;Signal;HPM_P1;HPM_P2
2022/05/29 00:02:21;;;;;;;4.00;2.40;;;22.00;47.70;;;;;;5106814;28;20477;-80
2022/05/29 00:05:52;;;;;;;3.60;2.40;;;22.00;47.80;;;;;;5107090;28;20565;-82
2022/05/29 00:08:43;;;;;;;3.43;2.20;;;22.00;47.80;;;;;;5104895;28;20453;-81
2022/05/29 00:11:41;;;;;;;5.80;1.90;;;22.00;48.00;;;;;;5086907;28;20488;-81
2022/05/29 00:14:13;;;;;;;7.77;2.90;;;22.00;48.00;;;;;;5086642;28;20456;-82
2022/05/29 00:16:42;;;;;;;3.80;2.43;;;22.00;48.20;;;;;;5086405;28;20438;-82
2022/05/29 00:19:11;;;;;;;4.73;2.10;;;21.90;48.20;;;;;;5086302;28;20441;-81
2022/05/29 00:21:39;;;;;;;3.97;2.37;;;22.00;48.40;;;;;;5086028;28;20472;-82
2022/05/29 00:24:10;;;;;;;3.73;2.37;;;22.00;48.40;;;;;;5087827;28;20429;-81
2022/05/29 00:26:44;;;;;;;3.80;2.10;;;22.00;48.20;;;;;;5087010;28;20487;-82
2022/05/29 00:29:13;;;;;;;4.23;2.50;;;22.00;48.30;;;;;;5100680;28;20444;-82
2022/05/29 00:31:41;;;;;;;4.33;2.50;;;21.90;48.30;;;;;;5106290;28;20459;-81
2022/05/29 00:34:09;;;;;;;3.80;2.50;;;21.90;48.40;;;;;;5106428;28;20426;-82
2022/05/29 00:36:46;;;;;;;3.60;2.20;;;21.90;48.40;;;;;;5106828;28;20451;-81
2022/05/29 00:39:15;;;;;;;2.93;2.13;;;21.90;48.40;;;;;;5105947;28;20440;-82
2022/05/29 00:41:50;;;;;;;7.27;2.50;;;21.90;48.50;;;;;;5106136;28;20439;-81
2022/05/29 00:44:26;;;;;;;3.30;2.00;;;21.90;48.40;;;;;;5103202;28;20459;-81
2022/05/29 00:46:57;;;;;;;3.13;2.20;;;21.90;48.60;;;;;;5106450;28;20504;-82
2022/05/29 00:49:29;;;;;;;2.47;2.07;;;21.80;48.50;;;;;;5106281;28;20415;-80
2022/05/29 00:52:00;;;;;;;10.80;2.30;;;21.90;48.60;;;;;;5107177;28;20495;-84
2022/05/29 00:54:37;;;;;;;3.90;2.23;;;21.90;48.60;;;;;;5106505;28;20411;-81
2022/05/29 00:57:28;;;;;;;3.17;2.10;;;21.80;48.60;;;;;;5106640;28;20455;-80
2022/05/29 01:00:17;;;;;;;3.77;2.27;;;21.80;48.50;;;;;;5102853;28;20449;-83
2022/05/29 01:06:42;;;;;;;4.20;2.00;;;21.80;48.60;;;;;;5101497;28;20391;-82
2022/05/29 01:09:37;;;;;;;2.60;2.10;;;21.80;48.70;;;;;;5099579;28;20451;-82
2022/05/29 01:12:07;;;;;;;3.00;2.30;;;21.80;48.70;;;;;;5085591;28;20477;-82
2022/05/29 01:14:47;;;;;;;2.50;2.30;;;21.70;48.70;;;;;;5086315;28;20491;-84
2022/05/29 01:17:20;;;;;;;3.40;2.23;;;21.80;48.80;;;;;;5086431;28;20416;-84
2022/05/29 01:20:03;;;;;;;3.93;2.40;;;21.80;48.80;;;;;;5086270;28;20444;-83
2022/05/29 01:23:10;;;;;;;3.97;2.33;;;21.80;48.80;;;;;;5086234;28;20479;-82
2022/05/29 01:26:08;;;;;;;2.70;2.50;;;21.80;48.70;;;;;;5092854;28;20452;-82
2022/05/29 01:28:44;;;;;;;4.77;2.50;;;21.70;48.70;;;;;;5108372;28;20424;-83
2022/05/29 01:31:15;;;;;;;5.33;3.10;;;21.70;48.80;;;;;;5109624;28;20476;-84
2022/05/29 01:33:46;;;;;;;5.17;2.40;;;21.70;48.80;;;;;;5107526;28;20470;-82
2022/05/29 01:36:16;;;;;;;4.30;2.30;;;21.70;48.90;;;;;;5106717;28;20447;-82
2022/05/29 01:38:46;;;;;;;3.57;2.37;;;21.70;48.90;;;;;;5106426;28;20415;-82
2022/05/29 01:41:16;;;;;;;3.70;2.40;;;21.70;48.90;;;;;;5101853;28;20468;-82
2022/05/29 01:43:57;;;;;;;5.20;2.10;;;21.70;48.80;;;;;;5106072;28;20476;-82
2022/05/29 01:46:35;;;;;;;2.10;1.90;;;21.70;48.90;;;;;;5106414;28;20449;-82
2022/05/29 01:49:16;;;;;;;2.00;1.80;;;21.70;48.90;;;;;;5106514;28;20440;-82
2022/05/29 01:51:48;;;;;;;4.57;2.13;;;21.70;48.80;;;;;;5107010;28;20460;-82
2022/05/29 01:54:36;;;;;;;2.40;2.20;;;21.70;49.60;;;;;;5106300;28;20501;-83
2022/05/29 01:57:15;;;;;;;3.27;2.43;;;21.70;48.80;;;;;;5100133;28;20435;-83
2022/05/29 01:59:50;;;;;;;2.33;1.90;;;21.70;48.90;;;;;;5095824;28;20448;-81
2022/05/29 02:02:27;;;;;;;4.77;2.30;;;21.70;48.80;;;;;;5106458;28;20483;-82
2022/05/29 02:05:05;;;;;;;3.13;2.03;;;21.60;48.80;;;;;;5107054;28;20443;-84
2022/05/29 02:07:54;;;;;;;3.00;2.27;;;21.60;48.80;;;;;;5105625;28;20445;-82
2022/05/29 02:10:44;;;;;;;3.47;2.17;;;21.60;48.90;;;;;;5107452;28;20443;-83
2022/05/29 02:13:45;;;;;;;3.80;2.27;;;21.60;48.90;;;;;;5101274;28;20446;-81
2022/05/29 02:16:44;;;;;;;2.20;2.00;;;21.60;48.90;;;;;;5100407;28;20415;-82
2022/05/29 02:19:17;;;;;;;3.73;2.40;;;21.60;48.80;;;;;;5104204;28;20644;-83
2022/05/29 02:21:46;;;;;;;2.60;1.90;;;21.60;49.00;;;;;;5105772;28;20480;-82
2022/05/29 02:24:26;;;;;;;2.47;1.97;;;21.60;49.00;;;;;;5107028;28;20447;-82
2022/05/29 02:27:06;;;;;;;3.90;2.40;;;21.60;49.00;;;;;;5108318;28;20434;-82
2022/05/29 02:29:34;;;;;;;2.63;2.03;;;21.60;49.00;;;;;;5109306;28;20441;-82
2022/05/29 02:32:08;;;;;;;4.90;2.40;;;21.50;49.00;;;;;;5102892;28;20492;-82
2022/05/29 02:34:40;;;;;;;2.87;1.93;;;21.60;49.00;;;;;;5111004;28;20475;-82
2022/05/29 02:37:17;;;;;;;3.83;2.20;;;21.50;49.10;;;;;;5110620;28;20441;-82
2022/05/29 02:40:00;;;;;;;2.97;2.00;;;21.50;48.80;;;;;;5110973;28;20433;-82
2022/05/29 02:42:37;;;;;;;3.30;2.30;;;21.50;48.90;;;;;;5110872;28;20471;-82
2022/05/29 02:45:09;;;;;;;3.20;2.30;;;21.50;49.00;;;;;;5111507;28;20411;-82
2022/05/29 02:47:43;;;;;;;3.33;2.00;;;21.50;49.00;;;;;;5104492;28;20466;-81
2022/05/29 02:53:26;;;;;;;7.03;2.60;;;21.50;49.20;;;;;;5110097;28;20412;-82
2022/05/29 02:56:02;;;;;;;2.83;2.17;;;21.50;49.20;;;;;;5110909;28;20443;-82
2022/05/29 02:58:38;;;;;;;3.67;2.10;;;21.50;49.10;;;;;;5110742;28;20448;-82
2022/05/29 03:01:23;;;;;;;2.43;2.10;;;21.40;49.10;;;;;;5110544;28;20461;-82
2022/05/29 03:04:31;;;;;;;2.53;2.33;;;21.50;49.20;;;;;;5110937;28;20465;-82
2022/05/29 03:10:13;;;;;;;2.97;2.20;;;21.40;49.20;;;;;;5104967;28;20440;-80
2022/05/29 03:13:19;;;;;;;2.57;1.90;;;21.40;49.20;;;;;;5110365;28;20456;-82
2022/05/29 03:15:58;;;;;;;3.07;2.10;;;21.40;49.20;;;;;;5110277;28;20452;-82
2022/05/29 03:19:01;;;;;;;6.03;2.40;;;21.40;49.20;;;;;;5078191;28;20524;-82
2022/05/29 03:21:48;;;;;;;3.10;2.00;;;21.30;49.20;;;;;;5104176;28;20473;-84
2022/05/29 03:24:42;;;;;;;5.37;2.43;;;21.40;49.30;;;;;;5106819;28;20471;-82
2022/05/29 03:27:29;;;;;;;4.50;1.90;;;21.40;49.30;;;;;;5110690;28;20462;-82
2022/05/29 03:30:03;;;;;;;2.80;2.13;;;21.40;49.30;;;;;;5110242;28;20456;-82
2022/05/29 03:32:41;;;;;;;3.83;2.00;;;21.40;49.30;;;;;;5109938;28;20515;-82
2022/05/29 03:35:39;;;;;;;2.63;1.80;;;21.40;49.30;;;;;;5108966;28;20456;-83
2022/05/29 03:38:16;;;;;;;3.00;2.40;;;21.30;49.20;;;;;;5109169;28;20498;-82
2022/05/29 03:41:05;;;;;;;;;;;;;;;;;;;;;
2022/05/29 03:43:34;;;;;;;3.90;2.50;;;21.40;49.40;;;;;;5106227;28;20541;-81
2022/05/29 03:49:13;;;;;;;3.80;2.03;;;21.40;49.30;;;;;;5106686;28;20426;-82
2022/05/29 03:51:59;;;;;;;6.17;2.30;;;21.40;49.30;;;;;;5109240;28;20461;-81
2022/05/29 03:54:43;;;;;;;4.43;2.00;;;21.40;49.30;;;;;;5109268;28;20452;-81
2022/05/29 03:57:41;;;;;;;3.63;2.10;;;21.40;49.40;;;;;;5100593;28;20453;-81
2022/05/29 04:06:41;;;;;;;1.80;1.70;;;21.40;49.40;;;;;;5107273;28;20507;-82
2022/05/29 04:12:13;;;;;;;3.43;2.10;;;21.40;49.40;;;;;;5108485;28;20461;-82
2022/05/29 04:14:46;;;;;;;2.50;2.03;;;21.40;49.30;;;;;;5088910;28;20433;-82
2022/05/29 04:17:19;;;;;;;5.10;2.20;;;21.40;49.40;;;;;;5089202;28;20445;-83
2022/05/29 04:20:28;;;;;;;2.97;2.20;;;21.40;49.40;;;;;;5089503;28;20430;-82
2022/05/29 04:23:07;;;;;;;3.97;2.27;;;21.40;49.30;;;;;;5088667;28;20469;-82
2022/05/29 04:25:44;;;;;;;3.27;2.00;;;21.30;49.40;;;;;;5088591;28;20439;-82
2022/05/29 04:28:53;;;;;;;5.13;2.47;;;21.40;49.50;;;;;;5088678;28;20445;-81
2022/05/29 04:31:31;;;;;;;3.87;2.03;;;21.40;49.40;;;;;;5099307;28;20926;-81
2022/05/29 04:34:01;;;;;;;2.83;2.50;;;21.30;49.40;;;;;;5109145;28;20434;-82
2022/05/29 04:36:48;;;;;;;8.83;2.30;;;21.30;49.40;;;;;;5108148;28;20529;-81
2022/05/29 04:39:22;;;;;;;4.50;2.53;;;21.40;49.40;;;;;;5107280;28;20456;-80
2022/05/29 04:41:52;;;;;;;5.37;2.40;;;21.40;49.40;;;;;;5106772;28;20457;-81
2022/05/29 04:44:26;;;;;;;3.83;2.10;;;21.40;49.50;;;;;;5106746;28;20476;-81
2022/05/29 04:47:00;;;;;;;2.70;2.30;;;21.40;49.50;;;;;;5106631;28;20446;-81
2022/05/29 04:49:31;;;;;;;3.83;2.13;;;21.40;49.40;;;;;;5097548;28;20457;-81
2022/05/29 04:52:10;;;;;;;2.63;2.37;;;21.40;49.50;;;;;;5087274;28;20457;-82
2022/05/29 04:54:38;;;;;;;4.67;2.03;;;21.40;49.40;;;;;;5087110;28;20440;-83
2022/05/29 04:57:23;;;;;;;2.10;1.90;;;21.40;49.40;;;;;;5086327;28;20448;-83
2022/05/29 05:00:08;;;;;;;3.67;2.13;;;21.50;49.50;;;;;;5087093;28;20424;-82
2022/05/29 05:02:44;;;;;;;2.07;1.93;;;21.50;49.40;;;;;;5086588;28;20446;-84
2022/05/29 05:05:20;;;;;;;2.97;2.17;;;21.40;49.40;;;;;;5093429;28;20469;-81
2022/05/29 05:07:59;;;;;;;2.63;2.20;;;21.50;49.50;;;;;;5106719;28;20436;-82
2022/05/29 05:10:38;;;;;;;2.47;2.20;;;21.50;49.40;;;;;;5107212;28;20468;-83
2022/05/29 05:13:11;;;;;;;5.37;2.10;;;21.50;49.30;;;;;;5107245;28;20439;-82
2022/05/29 05:15:40;;;;;;;3.60;1.93;;;21.50;49.40;;;;;;5107714;28;20463;-82
2022/05/29 05:18:22;;;;;;;3.50;1.80;;;21.50;49.40;;;;;;5106900;28;20444;-82
2022/05/29 05:20:54;;;;;;;2.00;1.70;;;21.50;49.40;;;;;;5104296;28;20447;-82
2022/05/29 05:23:27;;;;;;;2.60;1.80;;;21.40;49.40;;;;;;5102858;28;20437;-82
2022/05/29 05:26:04;;;;;;;3.47;2.03;;;21.50;49.40;;;;;;5108493;28;20444;-82
2022/05/29 05:28:42;;;;;;;2.60;1.90;;;21.50;49.40;;;;;;5108328;28;20434;-82
2022/05/29 05:31:12;;;;;;;2.97;2.27;;;21.50;49.50;;;;;;5106863;28;20456;-82
2022/05/29 05:33:47;;;;;;;3.47;2.13;;;21.50;49.40;;;;;;5107458;28;20527;-82
2022/05/29 05:36:25;;;;;;;2.13;1.93;;;21.50;49.40;;;;;;5104939;28;20445;-82
2022/05/29 05:38:59;;;;;;;3.00;2.40;;;21.50;49.40;;;;;;5089723;28;20432;-82
2022/05/29 05:41:30;;;;;;;3.60;1.90;;;21.50;49.50;;;;;;5106576;28;20464;-81
2022/05/29 05:44:01;;;;;;;2.13;1.93;;;21.50;49.50;;;;;;5106863;28;20545;-81
2022/05/29 05:46:53;;;;;;;2.57;1.80;;;21.50;49.40;;;;;;5106644;28;20452;-81
2022/05/29 05:49:39;;;;;;;2.30;2.10;;;21.60;49.40;;;;;;5106837;28;20415;-82
2022/05/29 05:52:36;;;;;;;5.20;2.50;;;21.60;49.50;;;;;;5104411;28;20461;-82
2022/05/29 05:55:14;;;;;;;3.00;1.93;;;21.60;49.40;;;;;;5098200;28;20452;-80
2022/05/29 05:57:49;;;;;;;3.17;1.90;;;21.60;49.40;;;;;;5105846;28;20441;-82
2022/05/29 06:00:24;;;;;;;3.70;2.57;;;21.60;49.50;;;;;;5109065;28;20440;-79
2022/05/29 06:03:21;;;;;;;3.37;2.27;;;21.60;49.40;;;;;;5108659;28;20504;-81
2022/05/29 06:06:06;;;;;;;4.07;2.10;;;21.60;49.30;;;;;;5110179;28;20472;-81
2022/05/29 06:08:49;;;;;;;5.80;2.37;;;21.60;49.50;;;;;;5110290;28;20407;-82
2022/05/29 06:14:27;;;;;;;2.57;2.13;;;21.50;49.30;;;;;;5062362;28;20445;-81
2022/05/29 06:16:55;;;;;;;2.40;1.90;;;21.50;49.30;;;;;;5083750;28;20437;-83
2022/05/29 06:19:24;;;;;;;4.50;1.90;;;21.60;49.40;;;;;;5090235;28;20452;-81
2022/05/29 06:21:55;;;;;;;3.33;2.10;;;21.60;49.40;;;;;;5090327;28;20461;-83
2022/05/29 06:24:24;;;;;;;2.50;1.70;;;21.60;49.40;;;;;;5089674;28;20468;-81
2022/05/29 06:26:55;;;;;;;4.80;2.13;;;21.60;49.40;;;;;;5089840;28;20457;-82
2022/05/29 06:29:27;;;;;;;2.63;2.10;;;21.60;49.30;;;;;;5090339;28;20452;-82
2022/05/29 06:31:59;;;;;;;2.40;2.17;;;21.60;49.40;;;;;;5109073;28;20490;-83
2022/05/29 06:34:27;;;;;;;3.97;2.10;;;21.60;49.30;;;;;;5108590;28;20440;-81
2022/05/29 06:36:57;;;;;;;2.77;2.13;;;21.60;49.40;;;;;;5108358;28;20451;-81
2022/05/29 06:39:25;;;;;;;4.83;2.00;;;21.70;50.10;;;;;;5108688;28;20459;-83
2022/05/29 06:42:00;;;;;;;3.30;1.70;;;21.70;49.30;;;;;;5104200;28;20495;-81
2022/05/29 06:47:32;;;;;;;3.63;2.20;;;21.70;49.30;;;;;;5107875;28;20455;-82
2022/05/29 06:50:03;;;;;;;3.10;1.80;;;21.70;49.20;;;;;;5108263;28;20468;-81
2022/05/29 06:52:35;;;;;;;2.97;2.13;;;21.70;49.20;;;;;;5108347;28;20476;-83
2022/05/29 06:55:07;;;;;;;4.03;2.00;;;21.70;49.10;;;;;;5108900;28;20435;-81
2022/05/29 06:57:43;;;;;;;2.70;1.87;;;21.80;49.20;;;;;;5109938;28;20436;-82
2022/05/29 07:08:38;;;;;;;2.40;2.20;;;21.80;49.10;;;;;;5108922;28;20448;-83
2022/05/29 07:11:09;;;;;;;3.57;2.00;;;21.80;49.20;;;;;;5107865;28;20481;-82
2022/05/29 07:13:41;;;;;;;2.43;1.83;;;21.80;49.10;;;;;;5109046;28;20504;-82
2022/05/29 07:16:11;;;;;;;4.83;2.17;;;21.80;49.00;;;;;;5109686;28;20415;-81
2022/05/29 07:18:48;;;;;;;2.30;1.90;;;21.80;49.00;;;;;;5098473;28;20464;-81
2022/05/29 07:21:21;;;;;;;3.03;1.97;;;21.80;49.20;;;;;;5104528;28;20468;-79
2022/05/29 07:23:53;;;;;;;4.20;2.17;;;21.80;49.10;;;;;;5104163;28;20940;-79
2022/05/29 07:26:21;;;;;;;3.30;2.00;;;21.90;49.10;;;;;;5105231;28;20452;-79
2022/05/29 07:28:52;;;;;;;4.23;2.17;;;21.90;49.00;;;;;;5104686;28;20464;-80
2022/05/29 07:31:20;;;;;;;4.50;2.20;;;21.90;48.90;;;;;;5105156;28;20486;-79
2022/05/29 07:33:49;;;;;;;4.07;2.10;;;21.90;48.90;;;;;;5104168;28;20448;-80
2022/05/29 07:36:21;;;;;;;5.23;2.10;;;22.00;49.00;;;;;;5106920;28;20439;-79
2022/05/29 07:39:02;;;;;;;6.20;2.30;;;22.00;49.00;;;;;;5107850;28;20460;-81
2022/05/29 07:44:21;;;;;;;2.03;1.93;;;22.00;48.90;;;;;;5108441;28;20461;-81
2022/05/29 07:46:58;;;;;;;2.40;1.87;;;22.10;49.10;;;;;;5107888;28;20469;-82
2022/05/29 07:49:29;;;;;;;2.10;1.90;;;22.20;49.00;;;;;;5104714;28;20452;-84
2022/05/29 07:52:02;;;;;;;4.00;1.97;;;22.20;48.80;;;;;;5107502;28;20460;-82
2022/05/29 07:54:39;;;;;;;5.47;2.13;;;22.30;48.80;;;;;;5104931;28;20451;-83
2022/05/29 07:57:07;;;;;;;3.33;2.13;;;22.30;48.70;;;;;;5099420;28;20455;-81
2022/05/29 07:59:37;;;;;;;2.83;1.73;;;22.50;48.80;;;;;;5107782;28;20437;-81
2022/05/29 08:02:14;;;;;;;2.90;1.90;;;22.50;48.50;;;;;;5107985;28;20472;-82
2022/05/29 08:05:00;;;;;;;1.97;1.63;;;22.60;48.50;;;;;;5099361;28;20423;-81
2022/05/29 08:07:29;;;;;;;2.20;1.60;;;22.70;48.20;;;;;;5104267;28;20931;-81
2022/05/29 08:10:10;;;;;;;2.40;1.80;;;22.70;48.10;;;;;;5112476;28;20458;-80
2022/05/29 08:12:41;;;;;;;4.63;2.07;;;22.90;48.00;;;;;;5116670;28;20447;-83
2022/05/29 08:15:15;;;;;;;2.57;1.77;;;22.90;47.80;;;;;;5117157;28;20461;-81
2022/05/29 08:17:51;;;;;;;4.60;2.00;;;22.90;48.00;;;;;;5109470;28;20926;-81
2022/05/29 08:20:36;;;;;;;5.43;2.00;;;22.90;48.00;;;;;;5103141;28;20455;-80
2022/05/29 08:42:34;;;;;;;5.90;2.23;;;22.70;48.00;;;;;;5106804;28;20447;-83
2022/05/29 08:45:07;;;;;;;4.43;1.70;;;22.60;47.90;;;;;;5107628;28;20505;-82
2022/05/29 08:47:36;;;;;;;3.13;1.93;;;22.60;48.00;;;;;;5107493;28;20408;-82
2022/05/29 08:50:04;;;;;;;3.10;1.83;;;22.60;48.00;;;;;;5107910;28;20427;-82
2022/05/29 08:52:45;;;;;;;3.27;1.80;;;22.60;48.00;;;;;;5107694;28;20452;-82
2022/05/29 08:55:15;;;;;;;1.80;1.60;;;22.60;47.90;;;;;;5101162;28;20467;-82
2022/05/29 08:57:54;;;;;;;2.60;1.80;;;22.60;48.10;;;;;;5107660;28;20456;-83
2022/05/29 09:00:28;;;;;;;8.03;1.70;;;22.50;47.90;;;;;;5107458;28;20433;-82
2022/05/29 09:03:04;;;;;;;2.40;1.63;;;22.50;48.10;;;;;;5105389;28;20469;-80
2022/05/29 09:05:42;;;;;;;4.30;1.63;;;22.50;48.10;;;;;;5104736;28;20464;-80
2022/05/29 09:08:16;;;;;;;4.67;2.50;;;22.50;48.00;;;;;;5105203;28;20427;-83
2022/05/29 09:10:45;;;;;;;2.23;2.07;;;22.50;48.10;;;;;;5102569;28;20445;-82
2022/05/29 09:13:17;;;;;;;2.13;1.63;;;22.50;48.10;;;;;;5108294;28;20431;-82
2022/05/29 09:15:56;;;;;;;2.63;1.67;;;22.50;48.00;;;;;;5108649;28;20453;-82
2022/05/29 09:18:28;;;;;;;3.13;1.90;;;22.50;48.00;;;;;;5108266;28;20452;-81
2022/05/29 09:21:05;;;;;;;6.60;1.80;;;22.50;48.10;;;;;;5108099;28;20850;-82
2022/05/29 09:23:45;;;;;;;3.10;1.80;;;22.50;48.00;;;;;;5107703;28;20437;-82
2022/05/29 09:26:21;;;;;;;5.77;1.93;;;22.50;48.20;;;;;;5104924;28;20468;-82
2022/05/29 09:28:53;;;;;;;3.00;1.97;;;22.60;48.10;;;;;;5107522;28;20479;-82
2022/05/29 09:35:12;;;;;;;3.67;2.10;;;22.80;47.90;;;;;;5111431;28;20498;-81
2022/05/29 09:38:09;;;;;;;1.90;1.70;;;22.80;48.00;;;;;;5112465;28;20468;-81
2022/05/29 09:41:08;;;;;;;5.70;1.87;;;22.80;47.90;;;;;;5110129;28;20435;-81
2022/05/29 09:43:45;;;;;;;2.00;1.90;;;22.80;48.00;;;;;;5108676;28;20959;-82
2022/05/29 09:46:50;;;;;;;1.87;1.77;;;23.00;47.90;;;;;;5111670;28;20467;-83
2022/05/29 09:53:23;;;;;;;5.37;1.97;;;23.30;47.40;;;;;;5039144;28;20448;-82
2022/05/29 09:56:12;;;;;;;3.30;1.87;;;23.50;47.60;;;;;;5111760;28;20474;-82
2022/05/29 09:58:46;;;;;;;4.60;1.57;;;23.80;47.30;;;;;;5109332;28;20469;-82
2022/05/29 10:01:40;;;;;;;4.47;1.67;;;24.10;47.20;;;;;;5107554;28;20435;-82
2022/05/29 10:04:16;;;;;;;6.23;1.77;;;24.40;46.80;;;;;;5087796;28;20416;-82
2022/05/29 10:06:49;;;;;;;8.20;1.33;;;24.60;46.30;;;;;;5089228;28;20476;-85
2022/05/29 10:09:34;;;;;;;3.73;2.00;;;24.80;46.40;;;;;;5089501;28;20442;-81
2022/05/29 10:12:16;;;;;;;9.73;2.17;;;24.90;45.90;;;;;;5089797;28;20440;-82
2022/05/29 10:14:45;;;;;;;3.93;1.77;;;25.00;45.70;;;;;;5091048;28;20460;-82
2022/05/29 10:17:15;;;;;;;2.00;1.63;;;25.00;45.50;;;;;;5105409;28;20411;-81
2022/05/29 10:19:44;;;;;;;6.47;1.50;;;25.00;45.60;;;;;;5108900;28;20437;-83
2022/05/29 10:22:15;;;;;;;7.67;2.40;;;24.80;45.40;;;;;;5109536;28;20480;-82
2022/05/29 10:24:43;;;;;;;5.50;1.70;;;24.70;45.60;;;;;;5109028;28;20456;-81
2022/05/29 10:27:15;;;;;;;6.00;1.67;;;24.60;45.90;;;;;;5107753;28;20446;-82
2022/05/29 10:29:43;;;;;;;3.37;1.80;;;24.50;46.60;;;;;;5098494;28;20472;-81
2022/05/29 10:32:30;;;;;;;8.33;1.77;;;24.50;46.10;;;;;;5105427;28;20469;-83
2022/05/29 10:35:25;;;;;;;2.10;1.63;;;24.50;46.10;;;;;;5105671;28;20427;-82
2022/05/29 10:37:57;;;;;;;4.40;1.30;;;24.60;46.30;;;;;;5103372;28;20403;-81
2022/05/29 10:43:09;;;;;;;8.60;1.67;;;24.60;46.10;;;;;;5102790;28;20778;-82
2022/05/29 10:45:46;;;;;;;3.30;1.63;;;24.70;46.20;;;;;;5105284;28;20426;-82
2022/05/29 10:48:34;;;;;;;5.30;1.63;;;24.70;46.00;;;;;;5101996;28;20478;-81
2022/05/29 10:51:15;;;;;;;6.77;1.60;;;24.80;46.20;;;;;;5105213;28;20446;-83
2022/05/29 10:54:05;;;;;;;2.57;1.67;;;24.70;46.00;;;;;;5104426;28;20411;-82
2022/05/29 10:56:38;;;;;;;3.30;1.87;;;24.70;46.10;;;;;;5105846;28;20425;-82
2022/05/29 10:59:35;;;;;;;4.20;2.10;;;24.80;46.20;;;;;;5095840;28;20467;-82
2022/05/29 11:05:20;;;;;;;2.70;2.20;;;24.50;46.70;;;;;;5096610;28;20444;-79
2022/05/29 11:08:07;;;;;;;2.90;2.00;;;24.60;47.80;;;;;;5097977;28;20522;-81
2022/05/29 11:10:46;;;;;;;8.03;3.90;;;24.70;48.00;;;;;;5103925;28;20515;-79
2022/05/29 11:13:21;;;;;;;8.90;4.30;;;24.90;47.80;;;;;;5102151;28;20418;-80
2022/05/29 11:15:55;;;;;;;9.90;4.30;;;25.10;47.90;;;;;;5100823;28;20498;-80
2022/05/29 11:18:59;;;;;;;9.13;5.13;;;25.20;47.60;;;;;;5104665;28;20479;-80
2022/05/29 11:21:34;;;;;;;13.70;5.20;;;25.40;47.30;;;;;;5083792;28;20427;-81
2022/05/29 11:24:27;;;;;;;11.50;7.40;;;25.30;47.10;;;;;;5103060;28;20457;-80
2022/05/29 11:26:58;;;;;;;13.50;7.80;;;25.30;47.20;;;;;;5084733;28;20466;-80
2022/05/29 11:29:41;;;;;;;22.50;11.00;;;25.30;47.20;;;;;;5095574;28;20489;-80
2022/05/29 11:32:35;;;;;;;23.70;12.53;;;25.30;47.70;;;;;;5083805;28;20443;-76
2022/05/29 11:35:12;;;;;;;32.03;16.53;;;25.50;47.60;;;;;;5080835;28;20477;-76
2022/05/29 11:38:15;;;;;;;34.90;19.50;;;25.70;48.10;;;;;;5074145;28;20396;-77
2022/05/29 11:40:45;;;;;;;46.97;21.77;;;25.90;48.20;;;;;;5074337;28;20468;-77
2022/05/29 11:43:19;;;;;;;38.10;20.20;;;25.80;47.10;;;;;;5074324;28;20452;-78
2022/05/29 11:51:28;;;;;;;34.07;17.57;;;25.70;46.20;;;;;;5074083;28;20523;-77
2022/05/29 11:54:08;;;;;;;28.60;16.53;;;25.70;46.50;;;;;;5074219;28;20412;-78
2022/05/29 11:56:40;;;;;;;33.83;16.23;;;25.60;46.50;;;;;;5072936;28;20448;-78
2022/05/29 11:59:12;;;;;;;29.33;14.73;;;25.60;46.40;;;;;;5074620;28;20533;-77
2022/05/29 12:01:41;;;;;;;24.80;14.10;;;25.60;47.10;;;;;;5074137;28;20539;-78
2022/05/29 12:04:12;;;;;;;31.50;13.20;;;25.70;47.00;;;;;;5073818;28;20511;-77
2022/05/29 12:06:43;;;;;;;18.60;10.03;;;25.80;46.40;;;;;;5077601;28;20529;-79
2022/05/29 12:09:16;;;;;;;9.63;5.00;;;25.80;45.30;;;;;;5079836;28;20946;-81
2022/05/29 12:11:46;;;;;;;10.60;6.20;;;25.30;43.20;;;;;;5077936;28;20436;-77
2022/05/29 12:14:16;;;;;;;9.53;4.97;;;25.00;44.10;;;;;;5080571;28;20586;-78
2022/05/29 12:16:45;;;;;;;9.17;4.30;;;25.00;43.60;;;;;;5097429;28;20438;-79
2022/05/29 12:19:20;;;;;;;18.03;11.13;;;24.80;42.90;;;;;;5100877;28;20415;-79
2022/05/29 12:21:51;;;;;;;11.43;5.60;;;24.50;42.50;;;;;;5083864;28;20439;-79
2022/05/29 12:24:22;;;;;;;5.20;3.13;;;24.30;42.20;;;;;;5093038;28;20458;-78
2022/05/29 12:26:53;;;;;;;13.83;2.73;;;24.10;42.20;;;;;;5093410;28;20489;-80
2022/05/29 12:29:23;;;;;;;8.30;2.40;;;24.00;43.20;;;;;;5098842;28;20439;-80
2022/05/29 12:31:54;;;;;;;4.50;2.27;;;23.80;43.40;;;;;;5101651;28;20428;-79
2022/05/29 12:34:24;;;;;;;6.47;2.27;;;23.70;44.60;;;;;;5102759;28;20437;-80
2022/05/29 12:37:14;;;;;;;7.90;2.50;;;23.70;44.20;;;;;;5102884;28;20479;-81
2022/05/29 12:39:59;;;;;;;2.80;1.70;;;23.90;44.50;;;;;;5101588;28;20442;-79
2022/05/29 12:42:45;;;;;;;3.53;1.97;;;24.10;44.30;;;;;;5093926;28;20828;-79
2022/05/29 12:45:37;;;;;;;5.13;2.07;;;24.20;44.20;;;;;;5094002;28;20438;-79
2022/05/29 12:48:25;;;;;;;6.60;2.30;;;24.20;44.30;;;;;;5101776;28;20461;-79
2022/05/29 12:51:06;;;;;;;7.57;2.00;;;24.20;44.00;;;;;;5100463;28;20526;-82
2022/05/29 12:54:25;;;;;;;6.00;2.30;;;23.90;43.60;;;;;;5095748;28;20488;-80
2022/05/29 12:57:06;;;;;;;5.30;1.70;;;23.30;44.50;;;;;;5079611;28;20415;-79
2022/05/29 13:00:01;;;;;;;7.20;2.80;;;23.40;45.10;;;;;;5080240;28;20975;-83
2022/05/29 13:02:41;;;;;;;7.20;2.43;;;23.50;45.80;;;;;;5101403;28;20532;-84
2022/05/29 13:05:23;;;;;;;3.43;2.03;;;23.50;44.70;;;;;;5099462;28;20418;-81
2022/05/29 13:08:15;;;;;;;3.80;1.70;;;23.40;46.00;;;;;;5100756;28;20510;-86
2022/05/29 13:10:44;;;;;;;5.80;1.90;;;23.20;45.60;;;;;;5102283;28;20529;-85
2022/05/29 13:13:18;;;;;;;4.83;2.00;;;23.30;45.70;;;;;;5100639;28;20966;-83
2022/05/29 13:15:47;;;;;;;3.83;2.43;;;23.40;45.90;;;;;;5100016;28;20453;-85
2022/05/29 13:18:20;;;;;;;3.93;1.77;;;23.40;46.80;;;;;;5100912;28;20436;-86
2022/05/29 13:21:08;;;;;;;3.10;1.90;;;23.50;45.30;;;;;;5100865;28;20545;-82
2022/05/29 13:23:37;;;;;;;5.90;2.77;;;23.30;45.60;;;;;;5099965;28;20438;-81
2022/05/29 13:26:23;;;;;;;11.47;2.43;;;22.70;45.80;;;;;;5098478;28;20511;-83
2022/05/29 13:50:36;;;;;;;7.60;2.20;;;22.80;46.00;;;;;;5101995;27;1200248;-80
2022/05/29 13:53:04;;;;;;;6.13;2.20;;;23.90;44.90;;;;;;5084672;28;20254;-78
2022/05/29 13:55:53;;;;;;;2.63;1.80;;;24.10;44.60;;;;;;5096255;28;20435;-80
2022/05/29 14:04:00;;;;;;;4.70;2.10;;;24.40;43.90;;;;;;5095586;28;20475;-78
2022/05/29 14:07:13;;;;;;;5.47;1.90;;;24.50;43.70;;;;;;5112991;28;20454;-81
2022/05/29 14:09:42;;;;;;;6.80;2.13;;;24.60;43.70;;;;;;5115785;28;20467;-80
2022/05/29 14:12:14;;;;;;;3.77;1.70;;;24.60;43.60;;;;;;5114738;28;20966;-80
2022/05/29 14:14:44;;;;;;;4.30;1.80;;;24.70;43.30;;;;;;5114964;28;20443;-80
2022/05/29 14:17:16;;;;;;;4.60;1.83;;;24.70;43.50;;;;;;5115906;28;20419;-79
2022/05/29 14:20:09;;;;;;;2.50;1.53;;;24.70;43.20;;;;;;5116654;28;20442;-80
2022/05/29 14:22:59;;;;;;;4.60;1.70;;;24.70;43.20;;;;;;5116868;28;20443;-81
2022/05/29 14:25:34;;;;;;;2.27;1.50;;;24.60;43.30;;;;;;5094652;28;20512;-79
2022/05/29 14:28:08;;;;;;;3.97;1.57;;;24.60;43.40;;;;;;5095042;28;20419;-79
2022/05/29 14:31:01;;;;;;;4.20;1.70;;;24.50;43.40;;;;;;5095490;28;20527;-79
2022/05/29 14:33:53;;;;;;;6.53;1.83;;;24.50;43.60;;;;;;5095447;28;20472;-79
2022/05/29 14:36:47;;;;;;;7.27;2.20;;;24.50;43.60;;;;;;5095716;28;20441;-80
2022/05/29 14:39:23;;;;;;;3.63;2.00;;;24.50;43.60;;;;;;5095452;28;20550;-80
2022/05/29 14:41:54;;;;;;;6.43;2.10;;;24.50;43.50;;;;;;5095700;28;20551;-78
2022/05/29 14:44:27;;;;;;;3.90;2.13;;;24.60;43.70;;;;;;5110369;28;20458;-80
2022/05/29 14:47:02;;;;;;;4.00;2.03;;;24.60;43.60;;;;;;5117892;28;20486;-79
2022/05/29 14:49:36;;;;;;;2.73;1.80;;;24.70;43.60;;;;;;5113035;28;20475;-81
2022/05/29 14:52:10;;;;;;;2.40;1.90;;;24.70;43.30;;;;;;5103378;28;20563;-79
2022/05/29 14:54:41;;;;;;;3.00;1.80;;;24.60;43.30;;;;;;5102215;28;20959;-79
2022/05/29 14:57:18;;;;;;;2.63;1.93;;;24.60;43.40;;;;;;5102753;28;20423;-80
2022/05/29 14:59:46;;;;;;;6.80;2.23;;;24.60;43.40;;;;;;5102661;28;20460;-80
2022/05/29 15:02:25;;;;;;;2.73;1.90;;;24.60;43.50;;;;;;5101913;28;20486;-81
2022/05/29 15:04:53;;;;;;;3.97;2.00;;;24.60;43.50;;;;;;5102125;28;20399;-80
2022/05/29 15:13:01;;;;;;;8.53;2.43;;;24.50;43.60;;;;;;5099131;28;20411;-80
2022/05/29 15:15:31;;;;;;;12.57;2.60;;;24.50;43.60;;;;;;5096186;28;20471;-80
2022/05/29 15:18:08;;;;;;;6.87;2.30;;;24.40;43.50;;;;;;5090701;28;20486;-81
2022/05/29 15:24:27;;;;;;;4.27;2.20;;;24.30;43.60;;;;;;5085222;28;20387;-80
2022/05/29 15:26:58;;;;;;;2.73;1.73;;;24.00;43.00;;;;;;5090074;28;20430;-81
2022/05/29 15:29:29;;;;;;;4.40;2.23;;;23.90;42.90;;;;;;5083325;28;20480;-81
2022/05/29 15:31:58;;;;;;;8.43;2.30;;;23.90;42.80;;;;;;5080948;28;20495;-81
2022/05/29 15:35:06;;;;;;;5.63;2.10;;;23.80;42.50;;;;;;5079581;28;20416;-80
2022/05/29 15:37:47;;;;;;;3.97;1.90;;;23.70;41.90;;;;;;5078804;28;20415;-81